Time;durP1;ratioP1;P1;durP2;ratioP2;P2;SDS_P1;SDS_P2;PMS_P1;PMS_P2;Temp;Humidity;BMP_temperature;BMP_pressure;BME280_temperature;BME280_humidity;BME280_pressure;Samples;Min_cycle;Max_cycle;Signal;HPM_P1;HPM_P2
2024/02/25 00:00:32;;;;;;;2.90;2.25;;;19.00;57.10;;;;;;5039664;28;20107;-56
2024/02/25 00:02:57;;;;;;;3.13;2.08;;;19.00;57.00;;;;;;5028568;28;20056;-50
2024/02/25 00:05:23;;;;;;;3.45;2.20;;;19.00;57.00;;;;;;5035948;28;22389;-47
2024/02/25 00:07:48;;;;;;;4.03;2.55;;;19.00;57.00;;;;;;5031092;28;20028;-48
2024/02/25 00:10:14;;;;;;;2.55;2.10;;;19.00;57.10;;;;;;5034706;28;20029;-51
2024/02/25 00:12:39;;;;;;;2.90;2.13;;;19.00;57.00;;;;;;5030524;28;20076;-47
2024/02/25 00:15:05;;;;;;;2.10;1.83;;;19.00;57.00;;;;;;5033948;28;20029;-54
2024/02/25 00:17:31;;;;;;;3.10;1.92;;;19.00;57.00;;;;;;5033233;28;20509;-51
2024/02/25 00:19:56;;;;;;;3.35;2.08;;;19.00;57.00;;;;;;5039865;28;20024;-50
2024/02/25 00:22:23;;;;;;;3.83;2.10;;;19.00;57.00;;;;;;5033362;28;20036;-48
2024/02/25 00:24:49;;;;;;;3.20;2.10;;;19.00;57.10;;;;;;5039103;28;20164;-51
2024/02/25 00:27:15;;;;;;;3.20;2.13;;;19.00;57.00;;;;;;5032862;28;20510;-50
2024/02/25 00:29:40;;;;;;;3.38;2.13;;;19.00;57.00;;;;;;5039980;28;20033;-52
2024/02/25 00:32:06;;;;;;;2.25;1.65;;;19.00;57.00;;;;;;5029237;28;20033;-48
2024/02/25 00:34:32;;;;;;;2.88;2.10;;;19.00;57.00;;;;;;5034959;28;20083;-50
2024/02/25 00:36:58;;;;;;;2.92;2.15;;;19.00;57.00;;;;;;5033050;28;20120;-50
2024/02/25 00:39:23;;;;;;;2.00;1.73;;;19.00;57.00;;;;;;5036740;28;20815;-50
2024/02/25 00:41:51;;;;;;;2.92;2.10;;;19.00;57.00;;;;;;5028780;28;20033;-49
2024/02/25 00:44:17;;;;;;;2.08;1.63;;;19.00;57.00;;;;;;5039664;28;20406;-49
2024/02/25 00:46:42;;;;;;;2.50;1.73;;;19.00;57.00;;;;;;5032487;28;20037;-50
2024/02/25 00:49:08;;;;;;;2.30;1.70;;;19.00;57.00;;;;;;5035425;28;20049;-52
2024/02/25 00:51:33;;;;;;;2.17;1.83;;;19.00;57.00;;;;;;5037437;28;20044;-55
2024/02/25 00:53:59;;;;;;;2.50;1.55;;;19.00;57.00;;;;;;5036954;28;20086;-51
2024/02/25 00:56:24;;;;;;;2.30;1.70;;;19.00;57.00;;;;;;5031715;28;20410;-48
2024/02/25 00:58:50;;;;;;;1.80;1.50;;;19.00;57.00;;;;;;5036390;28;20101;-52
2024/02/25 01:01:15;;;;;;;2.38;1.67;;;19.00;56.90;;;;;;5009719;28;20390;-49
2024/02/25 01:03:44;;;;;;;3.40;1.75;;;19.00;57.10;;;;;;5035233;28;20116;-48
2024/02/25 01:06:10;;;;;;;2.13;1.50;;;19.00;57.10;;;;;;5031340;28;20040;-53
2024/02/25 01:08:38;;;;;;;2.60;1.42;;;19.00;57.20;;;;;;5041491;28;20040;-53
2024/02/25 01:11:08;;;;;;;1.95;1.48;;;19.00;57.20;;;;;;5032640;28;20120;-54
2024/02/25 01:13:34;;;;;;;1.55;1.10;;;18.90;57.20;;;;;;5034597;28;20099;-55
2024/02/25 01:16:02;;;;;;;1.52;1.20;;;18.90;58.00;;;;;;5029630;28;20598;-51
2024/02/25 01:18:32;;;;;;;1.85;1.45;;;18.80;57.30;;;;;;5035249;28;20064;-52
2024/02/25 01:20:58;;;;;;;1.67;1.33;;;18.80;57.50;;;;;;5031734;28;20064;-53
2024/02/25 01:23:23;;;;;;;1.80;1.20;;;18.70;57.50;;;;;;5034612;28;20053;-48
2024/02/25 01:25:49;;;;;;;1.25;1.00;;;18.70;57.60;;;;;;5033055;28;20506;-49
2024/02/25 01:28:14;;;;;;;2.45;1.65;;;18.70;57.70;;;;;;5033371;28;20086;-53
2024/02/25 01:30:40;;;;;;;2.63;1.58;;;18.70;57.70;;;;;;5030612;28;20045;-48
2024/02/25 01:33:05;;;;;;;2.38;1.50;;;18.60;57.70;;;;;;5030888;28;20049;-51
2024/02/25 01:35:31;;;;;;;2.08;1.63;;;18.60;57.80;;;;;;5031024;28;20479;-52
2024/02/25 01:37:56;;;;;;;1.52;1.10;;;18.60;57.80;;;;;;5038254;28;20044;-54
2024/02/25 01:40:22;;;;;;;1.20;1.00;;;18.60;57.90;;;;;;5031674;28;20060;-52
2024/02/25 01:43:11;;;;;;;1.20;0.80;;;18.60;57.90;;;;;;5036253;28;20430;-49
2024/02/25 01:45:38;;;;;;;2.65;1.15;;;18.50;57.80;;;;;;5035230;28;20029;-51
2024/02/25 01:48:05;;;;;;;1.30;1.20;;;18.60;57.80;;;;;;5034901;28;20033;-49
2024/02/25 01:50:31;;;;;;;1.23;0.98;;;18.60;57.80;;;;;;5032528;28;20115;-47
2024/02/25 01:52:58;;;;;;;2.17;1.33;;;18.60;57.70;;;;;;5040396;28;20037;-55
2024/02/25 01:55:24;;;;;;;1.92;1.20;;;18.60;57.60;;;;;;5029413;28;20044;-50
2024/02/25 01:57:52;;;;;;;1.60;1.10;;;18.70;57.60;;;;;;5034424;28;20029;-51
2024/02/25 02:00:18;;;;;;;1.58;1.38;;;18.70;57.50;;;;;;5033350;28;20036;-51
2024/02/25 02:02:44;;;;;;;1.17;1.08;;;18.70;57.50;;;;;;5032046;28;20128;-51
2024/02/25 02:05:10;;;;;;;2.17;1.20;;;18.70;57.30;;;;;;5029570;28;20158;-51
2024/02/25 02:07:38;;;;;;;1.73;1.52;;;18.80;57.20;;;;;;5027279;28;20036;-49
2024/02/25 02:10:11;;;;;;;1.15;0.95;;;18.80;57.10;;;;;;5029086;28;20052;-51
2024/02/25 02:12:41;;;;;;;1.52;1.20;;;18.90;57.10;;;;;;5023488;28;20037;-51
2024/02/25 02:15:08;;;;;;;2.80;1.40;;;18.90;57.00;;;;;;5022007;28;20513;-50
2024/02/25 02:17:34;;;;;;;1.00;0.80;;;19.00;56.90;;;;;;5038677;28;20143;-49
2024/02/25 02:20:00;;;;;;;1.38;1.10;;;19.00;56.80;;;;;;5033770;28;20483;-50
2024/02/25 02:22:26;;;;;;;1.15;0.90;;;19.10;56.80;;;;;;5035201;28;20041;-49
2024/02/25 02:24:52;;;;;;;1.25;1.15;;;19.10;56.80;;;;;;5035157;28;20116;-50
2024/02/25 02:27:18;;;;;;;1.45;0.90;;;19.10;56.70;;;;;;5032894;28;20129;-51
2024/02/25 02:29:43;;;;;;;1.85;1.17;;;19.10;56.60;;;;;;5036445;28;20498;-49
2024/02/25 02:32:09;;;;;;;1.10;0.90;;;19.20;56.60;;;;;;5032973;28;20044;-49
2024/02/25 02:34:35;;;;;;;1.40;1.00;;;19.20;56.60;;;;;;5033729;28;20029;-50
2024/02/25 02:37:01;;;;;;;1.25;0.77;;;19.20;56.50;;;;;;5031969;28;20082;-51
2024/02/25 02:39:26;;;;;;;1.05;0.75;;;19.20;56.40;;;;;;5032417;28;20398;-52
2024/02/25 02:41:52;;;;;;;1.10;0.70;;;19.20;56.40;;;;;;5033976;28;20037;-50
2024/02/25 02:44:18;;;;;;;1.02;0.90;;;19.30;56.40;;;;;;5031284;28;20036;-51
2024/02/25 02:46:44;;;;;;;1.27;0.90;;;19.30;56.40;;;;;;5032266;28;20053;-51
2024/02/25 02:49:09;;;;;;;1.17;1.08;;;19.30;56.50;;;;;;5028715;28;20029;-49
2024/02/25 02:51:35;;;;;;;3.42;1.40;;;19.30;56.40;;;;;;5034053;28;20053;-51
2024/02/25 02:54:02;;;;;;;0.88;0.88;;;19.30;56.50;;;;;;5032076;28;20030;-51
2024/02/25 02:56:32;;;;;;;1.50;1.10;;;19.30;56.30;;;;;;5032119;28;20106;-49
2024/02/25 02:58:58;;;;;;;1.98;0.90;;;19.30;56.40;;;;;;5026678;28;20125;-48
2024/02/25 03:01:23;;;;;;;1.27;0.90;;;19.30;56.30;;;;;;5029427;28;20075;-49
2024/02/25 03:03:49;;;;;;;1.17;0.90;;;19.30;56.40;;;;;;5024896;28;20056;-52
2024/02/25 03:06:17;;;;;;;1.25;0.80;;;19.30;57.00;;;;;;5031997;28;20042;-49
2024/02/25 03:08:43;;;;;;;1.13;1.02;;;19.30;56.40;;;;;;5006218;28;20494;-49
2024/02/25 03:11:08;;;;;;;1.08;0.82;;;19.30;56.40;;;;;;5028797;28;20044;-48
2024/02/25 03:13:34;;;;;;;1.40;0.88;;;19.30;56.50;;;;;;5026339;28;20061;-50
2024/02/25 03:16:01;;;;;;;0.70;0.65;;;19.20;56.50;;;;;;5028912;28;20033;-52
2024/02/25 03:18:26;;;;;;;3.33;0.60;;;19.20;56.60;;;;;;5024693;28;20079;-49
2024/02/25 03:20:52;;;;;;;0.63;0.63;;;19.20;56.60;;;;;;5031892;28;20033;-52
2024/02/25 03:23:17;;;;;;;1.05;0.73;;;19.20;56.60;;;;;;5007395;28;20045;-50
2024/02/25 03:25:43;;;;;;;0.90;0.60;;;19.20;56.60;;;;;;5033143;28;20035;-49
2024/02/25 03:28:09;;;;;;;1.83;0.68;;;19.10;56.70;;;;;;5031385;28;20035;-49
2024/02/25 03:30:34;;;;;;;1.88;0.80;;;19.10;57.40;;;;;;5029418;28;20048;-49
2024/02/25 03:33:01;;;;;;;1.38;0.82;;;19.10;56.90;;;;;;5034076;28;20057;-49
2024/02/25 03:35:30;;;;;;;0.70;0.65;;;19.00;56.90;;;;;;5033306;28;20045;-54
2024/02/25 03:37:56;;;;;;;0.90;0.70;;;19.00;56.90;;;;;;5030305;28;20033;-52
2024/02/25 03:40:22;;;;;;;0.98;0.75;;;19.00;57.00;;;;;;5032962;28;20025;-53
2024/02/25 03:42:51;;;;;;;0.50;0.50;;;19.00;57.00;;;;;;5030593;28;20037;-52
2024/02/25 03:45:16;;;;;;;0.70;0.70;;;19.00;57.10;;;;;;5033405;28;20040;-47
2024/02/25 03:47:42;;;;;;;0.85;0.60;;;19.00;57.10;;;;;;5029872;28;20049;-48
2024/02/25 03:50:11;;;;;;;0.77;0.65;;;18.90;57.10;;;;;;5028698;28;20040;-51
2024/02/25 03:52:38;;;;;;;0.60;0.50;;;18.90;57.10;;;;;;5029513;28;20037;-57
2024/02/25 03:55:04;;;;;;;1.10;0.70;;;18.90;57.10;;;;;;5017988;28;20060;-53
2024/02/25 03:57:30;;;;;;;0.47;0.40;;;18.90;57.20;;;;;;5032269;28;20849;-50
2024/02/25 03:59:55;;;;;;;1.58;0.70;;;18.90;57.20;;;;;;5035535;28;20033;-52
2024/02/25 04:02:21;;;;;;;1.23;0.60;;;18.90;57.30;;;;;;5036092;28;20698;-52
2024/02/25 04:04:46;;;;;;;0.63;0.52;;;18.90;57.30;;;;;;5032435;28;20025;-52
2024/02/25 04:07:13;;;;;;;0.98;0.75;;;18.80;57.30;;;;;;5032373;28;20033;-50
2024/02/25 04:09:39;;;;;;;0.88;0.40;;;18.80;57.30;;;;;;5032394;28;20490;-50
2024/02/25 04:12:05;;;;;;;1.00;0.63;;;18.80;57.30;;;;;;5029973;28;20037;-50
2024/02/25 04:14:31;;;;;;;0.95;0.60;;;18.80;57.30;;;;;;5032361;28;20037;-48
2024/02/25 04:16:57;;;;;;;1.10;0.60;;;18.80;57.40;;;;;;5030598;28;20406;-50
2024/02/25 04:19:22;;;;;;;1.02;0.60;;;18.80;57.30;;;;;;5033815;28;20030;-51
2024/02/25 04:21:48;;;;;;;0.70;0.52;;;18.80;57.30;;;;;;5029022;28;20052;-50
2024/02/25 04:24:13;;;;;;;0.70;0.47;;;18.70;57.30;;;;;;5032814;28;20033;-49
2024/02/25 04:26:47;;;;;;;0.80;0.50;;;18.70;57.40;;;;;;5031321;28;20041;-52
2024/02/25 04:29:12;;;;;;;1.08;0.55;;;18.70;57.40;;;;;;5028684;28;20034;-50
2024/02/25 04:31:46;;;;;;;0.88;0.68;;;18.70;57.70;;;;;;5036121;28;20036;-51
2024/02/25 04:34:12;;;;;;;1.25;0.55;;;18.70;57.30;;;;;;5030896;28;20029;-51
2024/02/25 04:36:38;;;;;;;1.33;0.60;;;18.70;57.30;;;;;;5032678;28;20105;-51
2024/02/25 04:39:04;;;;;;;0.50;0.50;;;18.70;57.30;;;;;;5000611;28;20029;-52
2024/02/25 04:41:29;;;;;;;0.75;0.50;;;18.70;57.30;;;;;;5028764;28;20173;-51
2024/02/25 04:43:55;;;;;;;0.73;0.50;;;18.70;57.30;;;;;;5026860;28;20579;-49
2024/02/25 04:46:20;;;;;;;0.35;0.35;;;18.70;57.30;;;;;;5028145;28;20072;-56
2024/02/25 04:48:47;;;;;;;0.82;0.57;;;18.70;57.30;;;;;;5029838;28;20052;-52
2024/02/25 04:51:13;;;;;;;0.57;0.50;;;18.70;57.30;;;;;;5029267;28;20037;-49
2024/02/25 04:53:38;;;;;;;0.40;0.30;;;18.70;57.90;;;;;;5028726;28;20045;-51
2024/02/25 04:56:04;;;;;;;1.02;0.70;;;18.70;57.30;;;;;;5030214;28;20025;-51
2024/02/25 04:58:30;;;;;;;0.77;0.70;;;18.70;57.30;;;;;;5014135;28;20053;-49
2024/02/25 05:00:56;;;;;;;0.45;0.30;;;18.70;57.30;;;;;;5034484;28;20052;-49
2024/02/25 05:03:22;;;;;;;0.77;0.50;;;18.70;57.30;;;;;;5028130;28;20033;-48
2024/02/25 05:05:48;;;;;;;0.70;0.43;;;18.70;57.30;;;;;;5033743;28;20037;-51
2024/02/25 05:08:14;;;;;;;0.60;0.40;;;18.70;57.30;;;;;;5028420;28;20720;-55
2024/02/25 05:10:40;;;;;;;1.90;0.60;;;18.70;57.20;;;;;;5031353;28;20441;-55
2024/02/25 05:13:06;;;;;;;0.50;0.40;;;18.70;57.20;;;;;;5030228;28;20037;-53
2024/02/25 05:15:32;;;;;;;0.85;0.60;;;18.70;57.20;;;;;;5032187;28;20033;-53
2024/02/25 05:17:58;;;;;;;0.82;0.60;;;18.70;57.20;;;;;;5027594;28;20774;-50
2024/02/25 05:20:25;;;;;;;0.68;0.60;;;18.70;57.20;;;;;;5029372;28;20029;-50
2024/02/25 05:22:51;;;;;;;0.40;0.40;;;18.70;57.10;;;;;;5030649;28;20643;-49
2024/02/25 05:25:17;;;;;;;0.47;0.43;;;18.70;57.10;;;;;;5032903;28;20039;-48
2024/02/25 05:27:42;;;;;;;0.93;0.50;;;18.70;57.10;;;;;;5030337;28;20521;-46
2024/02/25 05:30:09;;;;;;;0.70;0.40;;;18.80;57.10;;;;;;5034995;28;20037;-52
2024/02/25 05:32:37;;;;;;;0.60;0.40;;;18.80;57.10;;;;;;5028110;28;20037;-49
2024/02/25 05:35:05;;;;;;;0.20;0.20;;;18.80;57.10;;;;;;5031935;28;20123;-49
2024/02/25 05:37:30;;;;;;;0.65;0.52;;;18.80;57.00;;;;;;5034890;28;20094;-49
2024/02/25 05:39:56;;;;;;;1.48;0.40;;;18.80;57.00;;;;;;5028036;28;20041;-57
2024/02/25 05:42:22;;;;;;;0.50;0.50;;;18.80;56.90;;;;;;5027112;28;20029;-55
2024/02/25 05:44:48;;;;;;;0.60;0.30;;;18.80;57.00;;;;;;5033396;28;20029;-48
2024/02/25 05:47:14;;;;;;;1.20;0.50;;;18.80;56.90;;;;;;5026210;28;20029;-49
2024/02/25 05:49:39;;;;;;;1.10;0.30;;;18.80;56.90;;;;;;5030207;28;20060;-49
2024/02/25 05:52:05;;;;;;;0.60;0.47;;;18.90;56.90;;;;;;5017346;28;20061;-48
2024/02/25 05:54:30;;;;;;;0.40;0.40;;;18.80;56.90;;;;;;5034091;28;20039;-55
2024/02/25 05:56:56;;;;;;;0.52;0.40;;;18.90;56.90;;;;;;5030394;28;20026;-49
2024/02/25 05:59:21;;;;;;;0.63;0.50;;;18.90;56.90;;;;;;5031479;28;20039;-48
2024/02/25 06:01:47;;;;;;;0.40;0.22;;;18.90;56.90;;;;;;5033544;28;20041;-50
2024/02/25 06:04:13;;;;;;;0.73;0.50;;;18.90;56.90;;;;;;5027670;28;20483;-52
2024/02/25 06:06:39;;;;;;;0.50;0.40;;;18.90;56.90;;;;;;5031562;28;20033;-53
2024/02/25 06:09:05;;;;;;;0.77;0.50;;;18.90;56.80;;;;;;5028071;28;20029;-54
2024/02/25 06:11:31;;;;;;;0.50;0.40;;;18.90;56.70;;;;;;5032427;28;20033;-52
2024/02/25 06:13:56;;;;;;;0.75;0.40;;;18.90;56.70;;;;;;5030682;28;20045;-48
2024/02/25 06:16:22;;;;;;;0.38;0.30;;;19.00;56.80;;;;;;5024807;28;20025;-48
2024/02/25 06:18:48;;;;;;;0.30;0.30;;;18.90;56.70;;;;;;5027650;28;20056;-50
2024/02/25 06:21:14;;;;;;;0.30;0.30;;;18.90;56.80;;;;;;5030033;28;20021;-51
2024/02/25 06:23:39;;;;;;;0.50;0.30;;;19.00;56.80;;;;;;5032458;28;20498;-49
2024/02/25 06:26:05;;;;;;;0.43;0.43;;;19.00;56.70;;;;;;5029251;28;20041;-54
2024/02/25 06:28:31;;;;;;;0.55;0.45;;;18.90;56.70;;;;;;5034313;28;20569;-51
2024/02/25 06:30:56;;;;;;;0.70;0.40;;;19.00;56.70;;;;;;5025822;28;20048;-49
2024/02/25 06:33:22;;;;;;;0.40;0.40;;;19.00;56.70;;;;;;5028007;28;20025;-49
2024/02/25 06:35:48;;;;;;;0.45;0.40;;;19.00;56.70;;;;;;5031744;28;20091;-51
2024/02/25 06:38:13;;;;;;;0.38;0.38;;;19.00;56.80;;;;;;5029403;28;20060;-57
2024/02/25 06:40:39;;;;;;;0.43;0.43;;;19.00;56.70;;;;;;5031048;28;20165;-51
2024/02/25 06:43:08;;;;;;;0.30;0.30;;;19.00;56.70;;;;;;5032160;28;20052;-51
2024/02/25 06:45:34;;;;;;;0.68;0.50;;;19.00;56.70;;;;;;5024812;28;20124;-51
2024/02/25 06:47:59;;;;;;;0.32;0.32;;;19.00;56.70;;;;;;5030879;28;20120;-52
2024/02/25 06:50:25;;;;;;;0.45;0.38;;;19.00;56.70;;;;;;5029711;28;20472;-51
2024/02/25 06:52:50;;;;;;;0.63;0.30;;;19.00;56.70;;;;;;5027666;28;20056;-52
2024/02/25 06:55:16;;;;;;;0.50;0.30;;;19.00;56.70;;;;;;5025380;28;20029;-50
2024/02/25 06:57:41;;;;;;;0.95;0.63;;;19.00;56.70;;;;;;5034925;28;20375;-50
2024/02/25 07:00:08;;;;;;;0.45;0.45;;;19.00;56.70;;;;;;5026192;28;20028;-51
2024/02/25 07:02:34;;;;;;;1.70;0.47;;;19.00;56.70;;;;;;5028519;28;20040;-51
2024/02/25 07:04:59;;;;;;;0.30;0.30;;;19.00;56.60;;;;;;5029017;28;20033;-51
2024/02/25 07:07:25;;;;;;;1.05;0.50;;;19.00;56.70;;;;;;5035688;28;20075;-51
2024/02/25 07:09:51;;;;;;;0.50;0.40;;;19.00;56.60;;;;;;5018472;28;20064;-50
2024/02/25 07:12:17;;;;;;;0.47;0.30;;;19.00;56.70;;;;;;5038529;28;20440;-51
2024/02/25 07:14:44;;;;;;;0.70;0.40;;;19.00;56.70;;;;;;5031542;28;20030;-50
2024/02/25 07:17:10;;;;;;;1.73;0.47;;;19.00;56.70;;;;;;5035391;28;20760;-50
2024/02/25 07:19:35;;;;;;;0.50;0.50;;;19.00;56.70;;;;;;5037498;28;20131;-52
2024/02/25 07:22:01;;;;;;;0.32;0.30;;;19.00;56.70;;;;;;5035206;28;20394;-51
2024/02/25 07:24:26;;;;;;;0.38;0.30;;;19.00;56.70;;;;;;5033770;28;20044;-51
2024/02/25 07:26:52;;;;;;;0.47;0.40;;;19.00;56.70;;;;;;5040440;28;20087;-51
2024/02/25 07:29:17;;;;;;;1.17;0.43;;;19.00;56.70;;;;;;5027610;28;20035;-52
2024/02/25 07:31:43;;;;;;;1.95;0.30;;;19.00;56.70;;;;;;5034197;28;20063;-50
2024/02/25 07:34:08;;;;;;;1.65;0.40;;;19.00;56.90;;;;;;5034866;28;20034;-59
2024/02/25 07:36:34;;;;;;;0.50;0.30;;;19.00;56.90;;;;;;5037230;28;20049;-50
2024/02/25 07:38:59;;;;;;;0.90;0.30;;;18.90;56.90;;;;;;5015858;28;20041;-51
2024/02/25 07:41:25;;;;;;;0.50;0.40;;;18.90;57.00;;;;;;5038005;28;20033;-50
2024/02/25 07:43:50;;;;;;;0.65;0.57;;;18.80;57.10;;;;;;5031269;28;20065;-52
2024/02/25 07:46:16;;;;;;;1.10;0.43;;;18.80;57.20;;;;;;5034235;28;20033;-51
2024/02/25 07:48:42;;;;;;;1.15;0.50;;;18.80;57.30;;;;;;5034389;28;20068;-50
2024/02/25 07:51:08;;;;;;;1.05;0.63;;;18.70;57.30;;;;;;5040154;28;20033;-49
2024/02/25 07:53:33;;;;;;;0.88;0.40;;;18.70;57.50;;;;;;5034701;28;20112;-50
2024/02/25 07:55:58;;;;;;;1.35;0.60;;;18.70;57.50;;;;;;5039155;28;20479;-50
2024/02/25 07:58:24;;;;;;;0.73;0.50;;;18.60;57.50;;;;;;5028719;28;20087;-50
2024/02/25 08:00:49;;;;;;;0.70;0.50;;;18.60;57.70;;;;;;5034026;28;20039;-50
2024/02/25 08:03:15;;;;;;;0.63;0.40;;;18.50;57.70;;;;;;5038839;28;20138;-52
2024/02/25 08:05:41;;;;;;;0.30;0.30;;;18.50;57.70;;;;;;5016182;28;20033;-49
2024/02/25 08:08:06;;;;;;;1.45;0.57;;;18.50;57.70;;;;;;5037171;28;20037;-52
2024/02/25 08:10:32;;;;;;;0.75;0.50;;;18.50;57.70;;;;;;5035576;28;21546;-50
2024/02/25 08:12:59;;;;;;;1.38;0.50;;;18.60;57.70;;;;;;5034442;28;20111;-49
2024/02/25 08:15:25;;;;;;;4.70;1.67;;;18.60;57.70;;;;;;5031147;28;20116;-51
2024/02/25 08:17:50;;;;;;;4.97;1.50;;;18.70;57.70;;;;;;5036137;28;20164;-51
2024/02/25 08:20:16;;;;;;;3.35;1.40;;;18.70;57.60;;;;;;5037508;28;20116;-50
2024/02/25 08:22:41;;;;;;;5.25;2.72;;;18.70;57.50;;;;;;5031769;28;20037;-50
2024/02/25 08:25:09;;;;;;;6.07;2.72;;;18.70;57.40;;;;;;5035514;28;20099;-50
2024/02/25 08:27:34;;;;;;;3.67;2.80;;;18.80;57.40;;;;;;5025613;28;20037;-49
2024/02/25 08:30:00;;;;;;;6.22;3.10;;;18.80;57.20;;;;;;5029391;28;20038;-50
2024/02/25 08:32:25;;;;;;;6.22;2.83;;;18.80;57.10;;;;;;5028455;28;20072;-50
2024/02/25 08:34:54;;;;;;;7.00;3.33;;;18.90;57.10;;;;;;5031813;28;20124;-49
2024/02/25 08:37:21;;;;;;;7.65;3.65;;;18.90;56.90;;;;;;5026324;28;20037;-51
2024/02/25 08:39:48;;;;;;;7.35;3.75;;;19.00;56.90;;;;;;5033328;28;20033;-51
2024/02/25 08:42:13;;;;;;;7.60;3.65;;;19.00;56.80;;;;;;5030076;28;20098;-51
2024/02/25 08:44:39;;;;;;;6.93;3.70;;;19.10;56.70;;;;;;5029586;28;20127;-50
2024/02/25 08:47:04;;;;;;;10.38;4.38;;;19.10;56.60;;;;;;5034401;28;20049;-50
2024/02/25 08:49:30;;;;;;;9.52;4.07;;;19.10;56.50;;;;;;5031348;28;20030;-54
2024/02/25 08:51:55;;;;;;;8.82;3.20;;;19.10;56.50;;;;;;5028915;28;20727;-51
2024/02/25 08:54:21;;;;;;;9.57;3.95;;;19.20;56.50;;;;;;5035720;28;20061;-50
2024/02/25 08:56:46;;;;;;;7.60;3.65;;;19.20;56.40;;;;;;5023362;28;20036;-51
2024/02/25 08:59:12;;;;;;;6.65;4.22;;;19.20;56.40;;;;;;5028564;28;20030;-50
2024/02/25 09:01:37;;;;;;;9.27;4.05;;;19.20;56.30;;;;;;5031712;28;20030;-50
2024/02/25 09:04:03;;;;;;;7.43;4.03;;;19.20;56.30;;;;;;5024229;28;20087;-56
2024/02/25 09:06:28;;;;;;;8.13;4.03;;;19.30;56.30;;;;;;5025764;28;20045;-48
2024/02/25 09:08:56;;;;;;;11.68;4.07;;;19.20;56.30;;;;;;5032951;28;20060;-48
2024/02/25 09:11:22;;;;;;;6.32;3.85;;;19.20;56.30;;;;;;5027200;28;20067;-55
2024/02/25 09:13:51;;;;;;;8.32;3.75;;;19.30;56.30;;;;;;5029968;28;20910;-52
2024/02/25 09:16:16;;;;;;;6.22;3.53;;;19.30;56.30;;;;;;5030153;28;20037;-50
2024/02/25 09:18:42;;;;;;;6.80;3.58;;;19.30;56.30;;;;;;5027097;28;20033;-51
2024/02/25 09:21:07;;;;;;;7.18;3.78;;;19.30;56.30;;;;;;5027832;28;20032;-50
2024/02/25 09:23:33;;;;;;;7.95;3.95;;;19.30;56.30;;;;;;5033879;28;20078;-52
2024/02/25 09:25:58;;;;;;;7.93;3.72;;;19.30;56.30;;;;;;5027130;28;20036;-53
2024/02/25 09:28:24;;;;;;;8.38;3.80;;;19.30;56.30;;;;;;5026533;28;20129;-56
2024/02/25 09:30:50;;;;;;;7.78;3.92;;;19.30;56.40;;;;;;5029654;28;20389;-49
2024/02/25 09:33:16;;;;;;;9.35;4.68;;;19.20;56.40;;;;;;5026285;28;20041;-49
2024/02/25 09:35:41;;;;;;;11.77;4.45;;;19.20;56.40;;;;;;5027278;28;20088;-51
2024/02/25 09:38:07;;;;;;;9.82;4.25;;;19.20;56.50;;;;;;5036108;28;20068;-53
2024/02/25 09:40:33;;;;;;;7.32;4.00;;;19.20;56.60;;;;;;5028194;28;20102;-50
2024/02/25 09:42:59;;;;;;;9.43;3.97;;;19.20;56.70;;;;;;5028664;28;20041;-47
2024/02/25 09:45:25;;;;;;;10.95;3.90;;;19.10;56.60;;;;;;5028712;28;20444;-51
2024/02/25 09:47:51;;;;;;;8.55;3.70;;;19.10;56.80;;;;;;5030335;28;20083;-49
2024/02/25 09:50:17;;;;;;;5.55;3.50;;;19.00;56.80;;;;;;5029509;28;20032;-50
2024/02/25 09:52:47;;;;;;;7.75;4.25;;;19.00;56.90;;;;;;5029282;28;20069;-49
2024/02/25 09:55:13;;;;;;;7.72;3.10;;;19.00;57.10;;;;;;5030998;28;20033;-52
2024/02/25 09:57:38;;;;;;;9.13;3.65;;;18.90;57.10;;;;;;5018289;28;20036;-51
2024/02/25 10:00:05;;;;;;;11.85;4.28;;;18.90;57.20;;;;;;5029195;28;20905;-49
2024/02/25 10:02:32;;;;;;;7.38;3.90;;;18.90;57.30;;;;;;5024567;28;20055;-52
2024/02/25 10:04:59;;;;;;;8.45;3.63;;;18.80;57.30;;;;;;5027932;28;20065;-52
2024/02/25 10:07:25;;;;;;;9.38;4.10;;;18.80;57.30;;;;;;5034201;28;20060;-51
2024/02/25 10:09:51;;;;;;;9.00;3.00;;;18.80;57.40;;;;;;5026378;28;20033;-50
2024/02/25 10:12:17;;;;;;;7.68;3.80;;;18.80;57.50;;;;;;5030215;28;20040;-50
2024/02/25 10:14:42;;;;;;;9.82;3.85;;;18.90;57.30;;;;;;5030192;28;20379;-49
2024/02/25 10:17:10;;;;;;;8.63;3.85;;;18.90;57.10;;;;;;5029419;28;20040;-52
2024/02/25 10:19:36;;;;;;;9.05;4.85;;;18.90;57.20;;;;;;5029957;28;20033;-51
2024/02/25 10:22:10;;;;;;;7.95;3.22;;;18.90;57.20;;;;;;5032292;28;20033;-50
2024/02/25 10:24:37;;;;;;;8.32;3.95;;;18.90;57.30;;;;;;5025112;28;20033;-50
2024/02/25 10:27:10;;;;;;;6.65;3.58;;;18.90;57.20;;;;;;5032825;28;20406;-47
2024/02/25 10:29:52;;;;;;;9.35;4.00;;;18.90;57.20;;;;;;5035044;23;20041;-48
2024/02/25 10:32:28;;;;;;;9.68;3.60;;;19.00;57.20;;;;;;5015735;28;20025;-50
2024/02/25 10:34:59;;;;;;;6.75;3.85;;;19.00;57.10;;;;;;5029804;28;20052;-49
2024/02/25 10:37:29;;;;;;;9.18;3.22;;;19.00;57.10;;;;;;5033695;28;20818;-51
2024/02/25 10:40:07;;;;;;;9.57;3.83;;;19.00;57.00;;;;;;5030253;28;20032;-50
2024/02/25 10:42:39;;;;;;;6.88;3.05;;;19.00;56.90;;;;;;5034573;28;20096;-50
2024/02/25 10:45:07;;;;;;;8.35;3.30;;;19.10;56.90;;;;;;5031852;28;20033;-49
2024/02/25 10:47:36;;;;;;;7.53;3.30;;;19.10;56.80;;;;;;5031846;28;20029;-48
2024/02/25 10:50:01;;;;;;;6.50;3.45;;;19.20;56.80;;;;;;5021758;28;20033;-51
2024/02/25 10:52:27;;;;;;;9.05;3.22;;;19.20;56.70;;;;;;5036716;28;20037;-47
2024/02/25 10:54:53;;;;;;;8.13;2.90;;;19.20;56.70;;;;;;5034061;28;20033;-49
2024/02/25 10:57:21;;;;;;;7.32;2.90;;;19.20;56.60;;;;;;5035181;28;20626;-50
2024/02/25 10:59:48;;;;;;;6.93;3.03;;;19.30;56.60;;;;;;5035354;28;20025;-51
2024/02/25 11:02:16;;;;;;;6.95;2.78;;;19.30;56.50;;;;;;5024557;28;20049;-49
2024/02/25 11:04:46;;;;;;;7.15;3.03;;;19.30;56.40;;;;;;5030979;28;20029;-49
2024/02/25 11:07:13;;;;;;;6.60;2.60;;;19.30;56.40;;;;;;5036335;28;20025;-51
2024/02/25 11:09:39;;;;;;;6.18;2.85;;;19.30;56.40;;;;;;5031458;28;20056;-49
2024/02/25 11:12:22;;;;;;;5.65;2.10;;;19.40;56.30;;;;;;5034555;28;20079;-51
2024/02/25 11:15:00;;;;;;;5.95;2.55;;;19.40;56.20;;;;;;5032711;28;20547;-47
2024/02/25 11:17:29;;;;;;;10.80;2.97;;;19.40;56.10;;;;;;5034686;28;20028;-48
2024/02/25 11:20:07;;;;;;;8.60;2.25;;;19.40;56.10;;;;;;5033333;28;20040;-50
2024/02/25 11:22:46;;;;;;;6.30;2.33;;;19.40;56.10;;;;;;5033532;28;20036;-49
2024/02/25 11:25:29;;;;;;;4.40;2.08;;;19.40;56.00;;;;;;5019571;28;20530;-48
2024/02/25 11:28:05;;;;;;;4.85;2.55;;;19.40;55.80;;;;;;5031881;28;20564;-50
2024/02/25 11:30:39;;;;;;;4.22;2.20;;;19.40;55.80;;;;;;5035568;28;20052;-50
2024/02/25 11:33:26;;;;;;;5.50;2.25;;;19.50;55.80;;;;;;5034834;28;20120;-50
2024/02/25 11:35:54;;;;;;;4.22;2.13;;;19.50;55.70;;;;;;5032578;28;20049;-49
2024/02/25 11:38:26;;;;;;;4.97;1.90;;;19.50;55.50;;;;;;5035194;28;20493;-52
2024/02/25 11:40:52;;;;;;;7.32;2.03;;;19.50;55.50;;;;;;5032896;28;20041;-49
2024/02/25 11:43:18;;;;;;;2.72;1.52;;;19.50;55.50;;;;;;5030061;28;20026;-50
2024/02/25 11:45:44;;;;;;;3.03;1.73;;;19.50;55.50;;;;;;5037325;28;20052;-48
2024/02/25 11:48:11;;;;;;;4.35;2.03;;;19.50;55.40;;;;;;5027435;28;20401;-50
2024/02/25 11:50:37;;;;;;;5.30;1.63;;;19.50;55.30;;;;;;5034430;28;20044;-49
2024/02/25 11:53:03;;;;;;;3.60;1.73;;;19.50;55.30;;;;;;5033546;28;20073;-51
2024/02/25 11:55:29;;;;;;;2.10;1.45;;;19.50;55.30;;;;;;5035522;28;20037;-50
2024/02/25 11:57:55;;;;;;;4.28;1.42;;;19.50;55.40;;;;;;5039913;28;20040;-48
2024/02/25 12:00:21;;;;;;;2.70;1.35;;;19.50;55.30;;;;;;5036080;28;20399;-48
2024/02/25 12:02:47;;;;;;;2.53;1.92;;;19.50;55.40;;;;;;5039946;28;20041;-49
2024/02/25 12:05:14;;;;;;;1.90;1.20;;;19.50;55.30;;;;;;5034631;28;20076;-48
2024/02/25 12:07:39;;;;;;;3.47;1.63;;;19.50;55.30;;;;;;5038412;28;20033;-48
2024/02/25 12:10:07;;;;;;;2.53;1.20;;;19.50;55.90;;;;;;5034699;28;20035;-48
2024/02/25 12:12:32;;;;;;;3.25;1.17;;;19.50;55.20;;;;;;5039951;28;20025;-48
2024/02/25 12:14:59;;;;;;;2.75;1.27;;;19.50;55.30;;;;;;5032131;28;20036;-48
2024/02/25 12:17:25;;;;;;;2.35;1.33;;;19.40;55.30;;;;;;5037067;28;20028;-50
2024/02/25 12:19:53;;;;;;;2.00;1.00;;;19.40;55.40;;;;;;5035830;28;20648;-49
2024/02/25 12:22:25;;;;;;;2.17;1.00;;;19.50;56.10;;;;;;5034030;28;20037;-51
2024/02/25 12:24:53;;;;;;;3.35;1.35;;;19.40;55.30;;;;;;5033386;28;20138;-51
2024/02/25 12:27:22;;;;;;;1.88;1.17;;;19.40;55.10;;;;;;5032894;28;20611;-50
2024/02/25 12:29:50;;;;;;;1.10;0.90;;;19.40;55.30;;;;;;5032141;28;20068;-48
2024/02/25 12:32:16;;;;;;;1.70;1.20;;;19.40;55.20;;;;;;5034820;28;20045;-50
2024/02/25 12:34:43;;;;;;;3.25;1.15;;;19.40;55.20;;;;;;5034531;28;20030;-49
2024/02/25 12:37:12;;;;;;;2.22;1.05;;;19.40;55.30;;;;;;5036176;28;20116;-50
2024/02/25 12:39:39;;;;;;;1.65;0.82;;;19.40;55.30;;;;;;5032340;28;20044;-50
2024/02/25 12:42:05;;;;;;;1.35;0.80;;;19.40;55.20;;;;;;5030856;28;20041;-47